createdAt,value
2023-04-18T00:01:23.704Z,7.10
2023-04-18T00:03:50.668Z,7.10
2023-04-18T00:06:17.732Z,7.10
2023-04-18T00:08:44.364Z,7.00
2023-04-18T00:11:11.105Z,7.00
2023-04-18T00:13:39.232Z,7.00
2023-04-18T00:16:07.672Z,7.00
2023-04-18T00:18:34.498Z,7.00
2023-04-18T00:21:02.117Z,7.00
2023-04-18T00:23:30.083Z,7.00
2023-04-18T00:25:56.668Z,7.10
2023-04-18T00:28:23.277Z,7.00
2023-04-18T00:30:50.009Z,7.10
2023-04-18T00:33:16.833Z,7.10
2023-04-18T00:35:43.738Z,7.10
2023-04-18T00:38:10.356Z,7.20
2023-04-18T00:40:37.724Z,7.20
2023-04-18T00:43:04.477Z,7.20
2023-04-18T00:45:31.198Z,7.20
2023-04-18T00:47:57.868Z,7.20
2023-04-18T00:50:24.888Z,7.20
2023-04-18T00:52:52.027Z,7.20
2023-04-18T00:55:19.371Z,7.20
2023-04-18T00:57:46.388Z,7.20
2023-04-18T01:00:13.578Z,7.30
2023-04-18T01:02:41.050Z,7.30
2023-04-18T01:05:08.609Z,7.30
2023-04-18T01:07:40.566Z,7.20
2023-04-18T01:10:08.698Z,7.20
2023-04-18T01:12:37.212Z,7.30
2023-04-18T01:15:05.594Z,7.20
2023-04-18T01:17:34.407Z,7.20
2023-04-18T01:20:02.207Z,7.20
2023-04-18T01:22:31.380Z,7.20
2023-04-18T01:24:58.506Z,7.20
2023-04-18T01:27:25.243Z,7.10
2023-04-18T01:29:52.864Z,7.20
2023-04-18T01:32:21.214Z,7.20
2023-04-18T01:34:47.890Z,7.20
2023-04-18T01:37:14.587Z,7.10
2023-04-18T01:39:41.252Z,7.10
2023-04-18T01:42:07.956Z,7.10
2023-04-18T01:44:34.532Z,7.00
2023-04-18T01:47:01.319Z,7.10
2023-04-18T01:49:28.024Z,7.00
2023-04-18T01:51:54.642Z,7.10
2023-04-18T01:54:21.486Z,7.00
2023-04-18T01:56:48.144Z,7.00
2023-04-18T01:59:14.931Z,7.10
2023-04-18T02:01:42.614Z,7.00
2023-04-18T02:04:09.241Z,7.00
2023-04-18T02:06:35.936Z,6.90
2023-04-18T02:09:02.575Z,6.90
2023-04-18T02:11:30.118Z,6.90
2023-04-18T02:13:56.804Z,6.90
2023-04-18T02:16:25.009Z,6.80
2023-04-18T02:18:52.398Z,6.80
2023-04-18T02:21:19.011Z,6.80
2023-04-18T02:23:45.580Z,6.80
2023-04-18T02:26:12.237Z,6.80
2023-04-18T02:28:39.065Z,6.90
2023-04-18T02:31:07.137Z,6.80
2023-04-18T02:33:34.265Z,6.70
2023-04-18T02:36:01.739Z,6.70
2023-04-18T02:38:28.341Z,6.80
2023-04-18T02:40:54.914Z,6.70
2023-04-18T02:43:21.537Z,6.60
2023-04-18T02:45:48.634Z,6.70
2023-04-18T02:48:15.328Z,6.60
2023-04-18T02:50:43.298Z,6.70
2023-04-18T02:53:09.918Z,6.60
2023-04-18T02:55:49.098Z,6.60
2023-04-18T02:58:16.791Z,6.60
2023-04-18T03:01:03.254Z,6.60
2023-04-18T03:03:29.940Z,6.60
2023-04-18T03:06:15.722Z,6.60
2023-04-18T03:08:42.579Z,6.60
2023-04-18T03:11:09.268Z,6.60
2023-04-18T03:13:36.727Z,6.60
2023-04-18T03:16:03.650Z,6.60
2023-04-18T03:18:31.792Z,6.50
2023-04-18T03:20:59.481Z,6.50
2023-04-18T03:23:27.920Z,6.50
2023-04-18T03:25:54.613Z,6.50
2023-04-18T03:28:22.091Z,6.60
2023-04-18T03:30:50.648Z,6.60
2023-04-18T03:33:17.959Z,6.50
2023-04-18T03:35:46.969Z,6.60
2023-04-18T03:38:13.560Z,6.50
2023-04-18T03:40:40.250Z,6.50
2023-04-18T03:43:14.450Z,6.50
2023-04-18T03:45:41.434Z,6.40
2023-04-18T03:48:08.192Z,6.30
2023-04-18T03:50:39.763Z,6.30
2023-04-18T03:53:09.565Z,6.30
2023-04-18T03:55:37.748Z,6.40
2023-04-18T03:58:04.465Z,6.30
2023-04-18T04:00:31.175Z,6.30
2023-04-18T04:03:07.221Z,6.30
2023-04-18T04:05:34.084Z,6.30
2023-04-18T04:08:00.737Z,6.30
2023-04-18T04:10:27.349Z,6.20
2023-04-18T04:12:54.130Z,6.10
2023-04-18T04:15:20.920Z,6.10
2023-04-18T04:17:56.105Z,6.10
2023-04-18T04:20:24.746Z,6.10
2023-04-18T04:23:00.046Z,6.10
2023-04-18T04:25:33.169Z,6.10
2023-04-18T04:28:03.304Z,6.20
2023-04-18T04:30:34.225Z,6.20
2023-04-18T04:33:01.719Z,6.20
2023-04-18T04:35:28.708Z,6.20
2023-04-18T04:37:55.518Z,6.20
2023-04-18T04:40:29.936Z,6.10
2023-04-18T04:43:05.480Z,6.20
2023-04-18T04:45:38.813Z,6.10
2023-04-18T04:48:06.030Z,6.10
2023-04-18T04:50:41.750Z,6.10
2023-04-18T04:53:11.785Z,6.20
2023-04-18T04:55:38.893Z,6.20
2023-04-18T04:58:05.674Z,6.20
2023-04-18T05:00:45.872Z,6.20
2023-04-18T05:03:12.623Z,6.20
2023-04-18T05:05:39.577Z,6.20
2023-04-18T05:08:06.423Z,6.20
2023-04-18T05:10:33.156Z,6.20
2023-04-18T05:12:59.796Z,6.20
2023-04-18T05:15:26.420Z,6.20
2023-04-18T05:17:53.082Z,6.30
2023-04-18T05:20:20.617Z,6.30
2023-04-18T05:22:48.636Z,6.20
2023-04-18T05:25:15.856Z,6.30
2023-04-18T05:27:43.822Z,6.20
2023-04-18T05:30:12.306Z,6.20
2023-04-18T05:32:39.397Z,6.20
2023-04-18T05:35:08.598Z,6.30
2023-04-18T05:37:35.947Z,6.40
2023-04-18T05:40:06.808Z,6.40
2023-04-18T05:42:34.578Z,6.30
2023-04-18T05:45:01.390Z,6.40
2023-04-18T05:47:28.838Z,6.50
2023-04-18T05:49:55.987Z,6.60
2023-04-18T05:52:23.103Z,6.60
2023-04-18T05:54:51.166Z,6.60
2023-04-18T05:57:18.144Z,6.60
2023-04-18T05:59:44.911Z,6.60
2023-04-18T06:02:15.477Z,6.60
2023-04-18T06:04:44.108Z,6.60
2023-04-18T06:07:11.139Z,6.70
2023-04-18T06:09:39.144Z,6.70
2023-04-18T06:12:07.368Z,6.70
2023-04-18T06:14:33.981Z,6.60
2023-04-18T06:17:00.941Z,6.60
2023-04-18T06:19:28.722Z,6.60
2023-04-18T06:21:55.648Z,6.60
2023-04-18T06:24:23.012Z,6.60
2023-04-18T06:26:49.713Z,6.60
2023-04-18T06:29:18.232Z,6.70
2023-04-18T06:31:46.132Z,6.70
2023-04-18T06:34:13.188Z,6.70
2023-04-18T06:36:40.578Z,6.70
2023-04-18T06:39:08.811Z,6.80
2023-04-18T06:41:36.559Z,6.80
2023-04-18T06:44:04.488Z,6.90
2023-04-18T06:46:32.463Z,7.00
2023-04-18T06:48:59.362Z,7.10
2023-04-18T06:51:26.832Z,7.10
2023-04-18T06:53:56.177Z,7.10
2023-04-18T06:56:23.372Z,7.10
2023-04-18T06:58:53.051Z,7.20
2023-04-18T07:01:20.001Z,7.40
2023-04-18T07:03:48.093Z,7.50
2023-04-18T07:06:15.934Z,7.50
2023-04-18T07:08:42.556Z,7.60
2023-04-18T07:11:11.517Z,7.60
2023-04-18T07:13:41.750Z,7.60
2023-04-18T07:16:09.716Z,7.60
2023-04-18T07:18:38.406Z,7.60
2023-04-18T07:21:09.305Z,7.50
2023-04-18T07:23:36.355Z,7.50
2023-04-18T07:26:05.521Z,7.40
2023-04-18T07:28:33.963Z,7.50
2023-04-18T07:31:03.246Z,7.50
2023-04-18T07:33:33.871Z,7.60
2023-04-18T07:36:03.997Z,7.80
2023-04-18T07:38:30.789Z,8.00
2023-04-18T07:41:01.817Z,7.70
2023-04-18T07:43:28.480Z,8.00
2023-04-18T07:45:55.543Z,8.20
2023-04-18T07:48:22.756Z,8.40
2023-04-18T07:50:49.669Z,8.50
2023-04-18T07:53:16.961Z,8.40
2023-04-18T07:55:43.982Z,8.20
2023-04-18T07:58:11.079Z,8.50
2023-04-18T08:00:39.216Z,8.60
2023-04-18T08:03:07.895Z,8.50
2023-04-18T08:05:34.908Z,8.70
2023-04-18T08:08:01.734Z,8.90
2023-04-18T08:10:30.904Z,8.80
2023-04-18T08:12:57.531Z,9.20
2023-04-18T08:15:24.176Z,9.30
2023-04-18T08:17:52.137Z,9.60
2023-04-18T08:20:18.810Z,9.60
2023-04-18T08:23:02.281Z,9.40
2023-04-18T08:25:31.730Z,9.30
2023-04-18T08:27:58.819Z,9.10
2023-04-18T08:30:25.720Z,9.30
2023-04-18T08:32:52.424Z,9.70
2023-04-18T08:35:19.335Z,9.80
2023-04-18T08:37:45.988Z,9.70
2023-04-18T08:40:12.932Z,10.00
2023-04-18T08:42:43.446Z,10.00
2023-04-18T08:45:12.328Z,9.90
2023-04-18T08:47:39.395Z,10.00
2023-04-18T08:50:07.630Z,10.00
2023-04-18T08:52:36.094Z,9.70
2023-04-18T08:55:02.963Z,9.80
2023-04-18T08:57:31.021Z,10.00
2023-04-18T09:00:00.978Z,10.40
2023-04-18T09:02:42.948Z,10.80
2023-04-18T09:05:15.104Z,11.10
2023-04-18T09:07:42.450Z,10.70
2023-04-18T09:10:10.120Z,10.70
2023-04-18T09:12:52.234Z,10.50
2023-04-18T09:15:23.465Z,10.50
2023-04-18T09:17:56.063Z,10.70
2023-04-18T09:20:44.488Z,11.20
2023-04-18T09:23:16.614Z,11.30
2023-04-18T09:25:46.289Z,11.00
2023-04-18T09:28:31.750Z,10.90
2023-04-18T09:31:09.406Z,11.00
2023-04-18T09:33:37.056Z,11.00
2023-04-18T09:36:21.649Z,10.80
2023-04-18T09:38:49.332Z,10.90
2023-04-18T09:41:19.912Z,10.40
2023-04-18T09:43:48.241Z,10.50
2023-04-18T09:46:17.461Z,10.80
2023-04-18T09:48:45.000Z,10.50
2023-04-18T09:51:15.983Z,11.10
2023-04-18T09:53:48.083Z,12.10
2023-04-18T09:56:26.472Z,12.60
2023-04-18T09:58:57.087Z,13.00
2023-04-18T10:01:28.476Z,13.00
2023-04-18T10:03:57.682Z,13.00
2023-04-18T10:06:27.534Z,12.50
2023-04-18T10:08:56.031Z,12.00
2023-04-18T10:11:24.168Z,12.20
2023-04-18T10:13:56.474Z,12.20
2023-04-18T10:16:23.842Z,12.30
2023-04-18T10:18:55.204Z,12.40
2023-04-18T10:21:22.411Z,12.50
2023-04-18T10:23:50.461Z,12.50
2023-04-18T10:26:17.160Z,12.50
2023-04-18T10:28:55.207Z,12.80
2023-04-18T10:31:23.532Z,12.80
2023-04-18T10:34:03.694Z,12.70
2023-04-18T10:36:32.401Z,13.00
2023-04-18T10:39:21.162Z,12.90
2023-04-18T10:41:51.552Z,13.00
2023-04-18T10:44:20.790Z,12.70
2023-04-18T10:46:50.870Z,12.80
2023-04-18T10:49:19.880Z,12.80
2023-04-18T10:51:48.155Z,12.80
2023-04-18T10:54:41.046Z,12.70
2023-04-18T10:57:08.936Z,13.00
2023-04-18T10:59:41.411Z,14.20
2023-04-18T11:02:30.051Z,15.00
2023-04-18T11:05:01.821Z,15.10
2023-04-18T11:07:46.055Z,14.30
2023-04-18T11:10:13.351Z,13.50
2023-04-18T11:12:41.428Z,13.00
2023-04-18T11:15:14.446Z,13.90
2023-04-18T11:17:41.336Z,14.30
2023-04-18T11:20:14.136Z,14.50
2023-04-18T11:22:50.987Z,15.20
2023-04-18T11:25:19.595Z,16.00
2023-04-18T11:27:47.757Z,16.50
2023-04-18T11:30:15.177Z,16.60
2023-04-18T11:32:41.997Z,16.00
2023-04-18T11:35:10.687Z,15.00
2023-04-18T11:37:38.627Z,14.30
2023-04-18T11:40:08.275Z,13.50
2023-04-18T11:42:35.990Z,13.20
2023-04-18T11:45:03.530Z,13.30
2023-04-18T11:47:33.958Z,13.10
2023-04-18T11:50:02.678Z,13.50
2023-04-18T11:52:30.817Z,13.40
2023-04-18T11:55:21.133Z,13.00
2023-04-18T11:57:55.396Z,12.50
2023-04-18T12:00:37.037Z,12.60
2023-04-18T12:03:05.786Z,12.50
2023-04-18T12:05:38.120Z,12.90
2023-04-18T12:08:09.883Z,13.20
2023-04-18T12:10:36.716Z,13.20
2023-04-18T12:13:07.767Z,13.20
2023-04-18T12:15:39.472Z,13.50
2023-04-18T12:18:09.536Z,13.90
2023-04-18T12:20:52.116Z,14.60
2023-04-18T12:23:40.226Z,15.90
2023-04-18T12:26:11.232Z,15.00
2023-04-18T12:28:38.152Z,15.70
2023-04-18T12:31:08.010Z,16.00
2023-04-18T12:33:36.532Z,15.10
2023-04-18T12:36:05.207Z,14.80
2023-04-18T12:38:31.851Z,14.50
2023-04-18T12:40:58.503Z,14.10
2023-04-18T12:43:25.663Z,14.80
2023-04-18T12:45:52.568Z,14.90
2023-04-18T12:48:19.211Z,14.70
2023-04-18T12:50:45.871Z,14.60
2023-04-18T12:53:12.480Z,14.90
2023-04-18T12:55:39.185Z,15.40
2023-04-18T12:58:05.823Z,16.20
2023-04-18T13:00:32.867Z,16.20
2023-04-18T13:02:59.926Z,16.30
2023-04-18T13:05:31.729Z,15.80
2023-04-18T13:08:15.134Z,15.90
2023-04-18T13:10:43.500Z,15.20
2023-04-18T13:13:10.353Z,14.70
2023-04-18T13:15:37.001Z,13.90
2023-04-18T13:18:06.224Z,14.70
2023-04-18T13:20:34.095Z,14.90
2023-04-18T13:23:02.416Z,15.30
2023-04-18T13:25:29.098Z,15.40
2023-04-18T13:27:57.310Z,15.80
2023-04-18T13:30:25.056Z,15.90
2023-04-18T13:32:51.727Z,14.90
2023-04-18T13:35:18.510Z,14.50
2023-04-18T13:37:46.008Z,14.00
2023-04-18T13:40:12.932Z,13.90
2023-04-18T13:42:39.591Z,14.00
2023-04-18T13:45:07.204Z,14.20
2023-04-18T13:47:34.472Z,14.70
2023-04-18T13:50:01.157Z,14.80
2023-04-18T13:52:27.877Z,14.40
2023-04-18T13:54:54.831Z,14.70
2023-04-18T13:57:21.922Z,14.30
2023-04-18T13:59:48.600Z,13.80
2023-04-18T14:02:15.731Z,13.30
2023-04-18T14:04:42.610Z,13.00
2023-04-18T14:07:09.548Z,12.80
2023-04-18T14:09:36.325Z,12.60
2023-04-18T14:12:03.061Z,12.60
2023-04-18T14:14:29.959Z,13.00
2023-04-18T14:16:56.707Z,12.90
2023-04-18T14:19:23.326Z,12.90
2023-04-18T14:21:49.961Z,12.80
2023-04-18T14:24:16.652Z,12.90
2023-04-18T14:26:43.883Z,13.60
2023-04-18T14:29:11.014Z,13.80
2023-04-18T14:31:37.821Z,13.40
2023-04-18T14:34:04.684Z,13.60
2023-04-18T14:36:31.815Z,14.20
2023-04-18T14:38:59.071Z,15.00
2023-04-18T14:41:26.113Z,15.80
2023-04-18T14:43:52.888Z,15.40
2023-04-18T14:46:21.145Z,15.20
2023-04-18T14:48:47.866Z,15.70
2023-04-18T14:51:15.854Z,16.50
2023-04-18T14:53:42.812Z,16.60
2023-04-18T14:56:09.444Z,16.70
2023-04-18T14:58:36.216Z,16.10
2023-04-18T15:01:04.093Z,15.90
2023-04-18T15:03:31.160Z,16.10
2023-04-18T15:05:57.906Z,16.30
2023-04-18T15:08:24.635Z,16.40
2023-04-18T15:10:51.300Z,16.30
2023-04-18T15:13:17.981Z,15.60
2023-04-18T15:15:51.783Z,15.90
2023-04-18T15:18:18.403Z,16.50
2023-04-18T15:20:44.992Z,16.70
2023-04-18T15:23:13.597Z,16.00
2023-04-18T15:25:41.567Z,15.60
2023-04-18T15:28:08.300Z,15.90
2023-04-18T15:30:35.012Z,16.50
2023-04-18T15:33:02.287Z,16.20
2023-04-18T15:35:29.050Z,16.10
2023-04-18T15:37:56.495Z,16.50
2023-04-18T15:40:23.623Z,16.70
2023-04-18T15:42:50.933Z,16.40
2023-04-18T15:45:17.618Z,16.70
2023-04-18T15:47:44.404Z,16.00
2023-04-18T15:50:11.364Z,16.50
2023-04-18T15:52:40.682Z,16.60
2023-04-18T15:55:10.023Z,15.80
2023-04-18T15:57:37.155Z,16.40
2023-04-18T16:00:07.879Z,17.00
2023-04-18T16:02:34.624Z,16.50
2023-04-18T16:05:01.285Z,16.80
2023-04-18T16:07:27.878Z,16.50
2023-04-18T16:09:54.491Z,16.10
2023-04-18T16:12:21.079Z,15.50
2023-04-18T16:14:47.711Z,15.40
2023-04-18T16:17:14.319Z,15.60
2023-04-18T16:19:40.958Z,15.10
2023-04-18T16:22:07.799Z,15.60
2023-04-18T16:24:34.414Z,15.50
2023-04-18T16:27:01.122Z,15.50
2023-04-18T16:29:27.799Z,15.20
2023-04-18T16:31:54.522Z,15.20
2023-04-18T16:34:21.335Z,15.50
2023-04-18T16:36:50.773Z,16.30
2023-04-18T16:39:18.604Z,16.60
2023-04-18T16:41:45.292Z,16.10
2023-04-18T16:44:12.030Z,16.60
2023-04-18T16:46:38.743Z,16.30
2023-04-18T16:49:05.503Z,16.20
2023-04-18T16:51:32.154Z,16.00
2023-04-18T16:53:58.907Z,16.30
2023-04-18T16:56:25.507Z,15.90
2023-04-18T16:58:52.231Z,15.60
2023-04-18T17:01:18.852Z,15.20
2023-04-18T17:03:45.578Z,15.30
2023-04-18T17:06:12.243Z,15.30
2023-04-18T17:08:38.892Z,14.70
2023-04-18T17:11:05.635Z,14.60
2023-04-18T17:13:32.340Z,14.50
2023-04-18T17:15:59.033Z,14.60
2023-04-18T17:18:25.675Z,14.60
2023-04-18T17:20:52.540Z,14.20
2023-04-18T17:23:19.292Z,14.30
2023-04-18T17:25:46.204Z,14.70
2023-04-18T17:28:13.823Z,14.50
2023-04-18T17:30:41.592Z,14.60
2023-04-18T17:33:09.648Z,14.60
2023-04-18T17:35:36.445Z,14.80
2023-04-18T17:38:03.341Z,14.30
2023-04-18T17:40:30.135Z,14.10
2023-04-18T17:42:56.828Z,13.90
2023-04-18T17:45:23.994Z,13.70
2023-04-18T17:47:50.892Z,13.30
2023-04-18T17:50:17.882Z,13.10
2023-04-18T17:52:46.228Z,13.20
2023-04-18T17:55:12.992Z,13.30
2023-04-18T17:57:39.604Z,13.00
2023-04-18T18:00:10.321Z,12.80
2023-04-18T18:02:40.426Z,12.50
2023-04-18T18:05:10.964Z,12.20
2023-04-18T18:07:38.255Z,11.90
2023-04-18T18:10:06.289Z,11.70
2023-04-18T18:12:35.080Z,11.50
2023-04-18T18:15:01.941Z,11.30
2023-04-18T18:17:28.874Z,11.10
2023-04-18T18:19:55.540Z,10.90
2023-04-18T18:22:24.664Z,10.80
2023-04-18T18:24:51.715Z,10.70
2023-04-18T18:27:20.256Z,10.60
2023-04-18T18:29:48.036Z,10.40
2023-04-18T18:32:14.731Z,10.30
2023-04-18T18:34:41.354Z,10.20
2023-04-18T18:37:08.113Z,10.20
2023-04-18T18:39:34.819Z,10.10
2023-04-18T18:42:02.120Z,10.20
2023-04-18T18:44:28.742Z,10.20
2023-04-18T18:46:56.588Z,10.20
2023-04-18T18:49:23.217Z,10.30
2023-04-18T18:51:50.107Z,10.30
2023-04-18T18:54:16.684Z,10.30
2023-04-18T18:56:44.173Z,10.50
2023-04-18T18:59:11.339Z,10.50
2023-04-18T19:01:38.064Z,10.60
2023-04-18T19:04:05.168Z,10.70
2023-04-18T19:06:32.012Z,10.70
2023-04-18T19:08:58.673Z,10.70
2023-04-18T19:11:26.623Z,10.70
2023-04-18T19:13:54.014Z,10.70
2023-04-18T19:16:20.691Z,10.80
2023-04-18T19:18:49.078Z,10.80
2023-04-18T19:21:16.254Z,10.90
2023-04-18T19:23:43.227Z,10.90
2023-04-18T19:26:10.055Z,10.90
2023-04-18T19:28:36.667Z,10.80
2023-04-18T19:31:03.492Z,10.80
2023-04-18T19:33:30.249Z,10.90
2023-04-18T19:35:56.893Z,10.90
2023-04-18T19:38:23.568Z,10.90
2023-04-18T19:40:50.412Z,10.90
2023-04-18T19:43:17.087Z,11.00
2023-04-18T19:45:43.748Z,11.00
2023-04-18T19:48:10.532Z,11.00
2023-04-18T19:50:40.309Z,11.00
2023-04-18T19:53:07.078Z,11.00
2023-04-18T19:55:33.942Z,11.00
2023-04-18T19:58:00.625Z,11.00
2023-04-18T20:00:28.145Z,11.00
2023-04-18T20:02:54.965Z,11.00
2023-04-18T20:05:21.897Z,11.00
2023-04-18T20:07:48.755Z,11.00
2023-04-18T20:10:15.399Z,11.00
2023-04-18T20:12:42.018Z,11.00
2023-04-18T20:15:09.058Z,10.90
2023-04-18T20:17:35.753Z,10.90
2023-04-18T20:20:04.400Z,10.90
2023-04-18T20:22:32.228Z,10.80
2023-04-18T20:24:58.819Z,10.90
2023-04-18T20:27:25.491Z,10.80
2023-04-18T20:29:52.492Z,10.80
2023-04-18T20:32:19.208Z,10.80
2023-04-18T20:34:46.529Z,10.80
2023-04-18T20:37:15.457Z,10.80
2023-04-18T20:39:42.052Z,10.90
2023-04-18T20:42:14.112Z,10.80
2023-04-18T20:44:46.587Z,10.80
2023-04-18T20:47:15.489Z,10.70
2023-04-18T20:49:42.603Z,10.70
2023-04-18T20:52:14.139Z,10.60
2023-04-18T20:54:41.689Z,10.70
2023-04-18T20:57:08.323Z,10.60
2023-04-18T20:59:35.239Z,10.50
2023-04-18T21:02:02.073Z,10.50
2023-04-18T21:04:29.704Z,10.40
2023-04-18T21:06:56.466Z,10.30
2023-04-18T21:09:23.124Z,10.20
2023-04-18T21:11:49.791Z,10.10
2023-04-18T21:14:17.180Z,10.10
2023-04-18T21:16:44.060Z,10.00
2023-04-18T21:19:11.027Z,10.00
2023-04-18T21:21:37.664Z,9.90
2023-04-18T21:24:05.518Z,9.90
2023-04-18T21:26:32.144Z,9.90
2023-04-18T21:29:01.320Z,10.10
2023-04-18T21:31:30.873Z,10.10
2023-04-18T21:33:59.356Z,10.10
2023-04-18T21:36:27.218Z,10.00
2023-04-18T21:38:55.085Z,10.10
2023-04-18T21:41:22.128Z,10.10
2023-04-18T21:43:49.277Z,10.10
2023-04-18T21:46:16.134Z,10.10
2023-04-18T21:48:44.523Z,10.00
2023-04-18T21:51:12.560Z,10.00
2023-04-18T21:53:40.258Z,10.00
2023-04-18T21:56:07.648Z,9.90
2023-04-18T21:58:34.651Z,9.80
2023-04-18T22:01:01.557Z,9.80
2023-04-18T22:03:28.644Z,9.70
2023-04-18T22:05:58.760Z,9.50
2023-04-18T22:08:25.587Z,9.50
2023-04-18T22:10:54.920Z,9.40
2023-04-18T22:13:25.621Z,9.40
2023-04-18T22:15:52.348Z,9.30
2023-04-18T22:18:19.060Z,9.30
2023-04-18T22:20:46.837Z,9.20
2023-04-18T22:23:13.969Z,9.20
2023-04-18T22:25:40.816Z,9.00
2023-04-18T22:28:07.810Z,8.90
2023-04-18T22:30:34.745Z,8.90
2023-04-18T22:33:01.589Z,8.80
2023-04-18T22:35:28.341Z,8.70
2023-04-18T22:37:55.657Z,8.70
2023-04-18T22:40:22.384Z,8.60
2023-04-18T22:42:51.679Z,8.70
2023-04-18T22:45:19.243Z,8.80
2023-04-18T22:47:46.532Z,8.70
2023-04-18T22:50:14.367Z,8.70
2023-04-18T22:52:41.459Z,8.70
2023-04-18T22:55:09.035Z,8.60
2023-04-18T22:57:35.778Z,8.60
2023-04-18T23:00:04.088Z,8.50
2023-04-18T23:02:30.761Z,8.50
2023-04-18T23:04:58.886Z,8.60
2023-04-18T23:07:25.688Z,8.60
2023-04-18T23:09:52.351Z,8.60
2023-04-18T23:12:18.989Z,8.50
2023-04-18T23:14:45.853Z,8.40
2023-04-18T23:17:12.453Z,8.20
2023-04-18T23:19:39.167Z,8.20
2023-04-18T23:22:05.876Z,8.20
2023-04-18T23:24:32.515Z,8.20
2023-04-18T23:26:59.135Z,8.20
2023-04-18T23:29:25.722Z,8.00
2023-04-18T23:31:52.372Z,8.00
2023-04-18T23:34:19.025Z,8.00
2023-04-18T23:36:45.815Z,8.10
2023-04-18T23:39:12.436Z,8.00
2023-04-18T23:41:39.078Z,8.10
2023-04-18T23:44:05.949Z,8.20
2023-04-18T23:46:33.789Z,8.20
2023-04-18T23:49:02.432Z,8.20
2023-04-18T23:51:29.022Z,8.20
2023-04-18T23:53:55.673Z,8.30
2023-04-18T23:56:23.108Z,8.40
2023-04-18T23:58:49.980Z,8.30
